Midland, South Dakota
Current Conditions -  °F | °C
As of 5:55 PM on Friday 28 Nov 2014 (Local Time) from KPHP Reporting Station
Clear Clear  
Wind Chill: 31°   Ceiling: Unl
Heat Index: 37°   Visibility: 10mi
Dew Point: 28°   Wind: 8mph
Humidity: 70%   Direction: 80°E
Pressure: 29.53"   Gusts: NA
Location:  44.07°N, 101.16°W
Report Text: KPHP 290055Z AUTO 08007KT 10SM CLR 03/M02 A2953 RMK AO2 SLP016 T00281022
Loading
Personal Weather Stations






























Interactive Weather Map New forecast layout! Learn more

10-Day Weather Forecast

Advertisements
Track Severe Weather on mobile